createdAt,value
2023-01-27T00:02:04.145Z,78.51
2023-01-27T00:04:54.841Z,78.66
2023-01-27T00:07:47.055Z,78.56
2023-01-27T00:10:36.930Z,78.45
2023-01-27T00:13:27.670Z,79.34
2023-01-27T00:16:17.024Z,78.91
2023-01-27T00:19:07.179Z,79.52
2023-01-27T00:22:15.332Z,79.03
2023-01-27T00:25:04.850Z,79.03
2023-01-27T00:27:54.104Z,79.04
2023-01-27T00:30:43.300Z,78.56
2023-01-27T00:33:31.599Z,78.49
2023-01-27T00:36:20.942Z,78.20
2023-01-27T00:39:13.596Z,78.70
2023-01-27T00:42:06.552Z,79.08
2023-01-27T00:45:15.110Z,78.52
2023-01-27T00:48:04.538Z,78.43
2023-01-27T00:50:54.497Z,78.10
2023-01-27T00:53:43.810Z,77.93
2023-01-27T00:56:34.739Z,78.03
2023-01-27T00:59:24.380Z,78.25
2023-01-27T01:02:14.533Z,77.95
2023-01-27T01:05:03.845Z,78.72
2023-01-27T01:07:53.256Z,77.92
2023-01-27T01:10:42.553Z,78.05
2023-01-27T01:13:34.458Z,78.38
2023-01-27T01:16:25.974Z,77.95
2023-01-27T01:19:15.297Z,78.51
2023-01-27T01:22:05.067Z,79.09
2023-01-27T01:24:54.374Z,78.73
2023-01-27T01:27:46.903Z,78.80
2023-01-27T01:30:39.542Z,79.02
2023-01-27T01:33:28.785Z,79.48
2023-01-27T01:36:20.736Z,80.03
2023-01-27T01:39:10.032Z,79.98
2023-01-27T01:41:59.708Z,80.31
2023-01-27T01:44:53.167Z,80.22
2023-01-27T01:47:43.964Z,80.27
2023-01-27T01:50:35.158Z,80.33
2023-01-27T01:53:29.529Z,80.78
2023-01-27T01:56:24.324Z,80.85
2023-01-27T01:59:19.025Z,81.00
2023-01-27T02:02:14.395Z,81.29
2023-01-27T02:05:11.085Z,81.02
2023-01-27T02:08:06.204Z,80.96
2023-01-27T02:10:55.843Z,80.48
2023-01-27T02:13:45.622Z,80.61
2023-01-27T02:16:35.054Z,81.14
2023-01-27T02:19:33.299Z,80.75
2023-01-27T02:22:33.629Z,81.14
2023-01-27T02:25:33.896Z,81.07
2023-01-27T02:28:28.000Z,81.08
2023-01-27T02:31:17.826Z,80.46
2023-01-27T02:34:11.646Z,80.82
2023-01-27T02:37:07.033Z,80.40
2023-01-27T02:39:59.133Z,80.82
2023-01-27T02:42:48.667Z,81.25
2023-01-27T02:45:39.337Z,81.17
2023-01-27T02:48:28.653Z,81.00
2023-01-27T02:51:20.455Z,80.38
2023-01-27T02:54:10.081Z,80.57
2023-01-27T02:56:59.392Z,81.17
2023-01-27T02:59:50.531Z,81.29
2023-01-27T03:02:41.680Z,81.25
2023-01-27T03:05:31.054Z,81.10
2023-01-27T03:08:20.498Z,81.39
2023-01-27T03:11:11.571Z,81.11
2023-01-27T03:14:01.852Z,81.54
2023-01-27T03:17:08.683Z,81.48
2023-01-27T03:19:59.329Z,81.81
2023-01-27T03:22:48.495Z,82.19
2023-01-27T03:25:38.358Z,82.15
2023-01-27T03:28:27.661Z,82.00
2023-01-27T03:31:37.593Z,82.44
2023-01-27T03:34:27.218Z,82.05
2023-01-27T03:37:42.811Z,82.26
2023-01-27T03:40:50.623Z,82.64
2023-01-27T03:43:57.129Z,82.07
2023-01-27T03:46:48.372Z,82.09
2023-01-27T03:49:37.669Z,82.42
2023-01-27T03:52:28.623Z,81.83
2023-01-27T03:55:18.032Z,81.93
2023-01-27T03:58:22.121Z,82.52
2023-01-27T04:01:17.202Z,82.42
2023-01-27T04:04:24.368Z,83.20
2023-01-27T04:07:14.234Z,82.64
2023-01-27T04:10:05.437Z,82.74
2023-01-27T04:12:53.685Z,82.99
2023-01-27T04:15:42.966Z,83.23
2023-01-27T04:18:32.235Z,82.95
2023-01-27T04:21:21.541Z,83.07
2023-01-27T04:24:22.730Z,82.85
2023-01-27T04:27:16.841Z,82.91
2023-01-27T04:30:07.695Z,83.29
2023-01-27T04:32:56.951Z,82.64
2023-01-27T04:35:46.664Z,83.10
2023-01-27T04:38:35.891Z,83.18
2023-01-27T04:41:25.221Z,82.96
2023-01-27T04:44:15.925Z,83.12
2023-01-27T04:47:05.253Z,83.10
2023-01-27T04:49:54.674Z,82.79
2023-01-27T04:52:45.329Z,82.57
2023-01-27T04:55:35.045Z,82.90
2023-01-27T04:58:24.372Z,82.97
2023-01-27T05:01:15.008Z,83.16
2023-01-27T05:04:04.550Z,83.25
2023-01-27T05:06:53.821Z,82.59
2023-01-27T05:09:43.258Z,82.83
2023-01-27T05:12:32.527Z,82.37
2023-01-27T05:15:24.329Z,82.45
2023-01-27T05:18:15.592Z,82.33
2023-01-27T05:21:06.212Z,82.52
2023-01-27T05:23:55.492Z,82.62
2023-01-27T05:26:44.810Z,82.64
2023-01-27T05:29:34.153Z,82.59
2023-01-27T05:32:23.327Z,82.47
2023-01-27T05:35:14.283Z,82.33
2023-01-27T05:38:03.809Z,81.93
2023-01-27T05:40:58.610Z,82.49
2023-01-27T05:43:52.787Z,82.30
2023-01-27T05:46:43.416Z,82.63
2023-01-27T05:49:33.389Z,82.14
2023-01-27T05:52:24.121Z,82.61
2023-01-27T05:55:14.316Z,82.20
2023-01-27T05:58:03.684Z,82.16
2023-01-27T06:00:53.448Z,82.23
2023-01-27T06:03:43.561Z,82.43
2023-01-27T06:06:34.597Z,82.67
2023-01-27T06:09:25.191Z,82.44
2023-01-27T06:12:14.568Z,82.00
2023-01-27T06:15:03.862Z,82.71
2023-01-27T06:17:53.142Z,82.65
2023-01-27T06:20:43.203Z,82.30
2023-01-27T06:23:32.971Z,82.53
2023-01-27T06:26:23.682Z,82.31
2023-01-27T06:29:12.912Z,82.70
2023-01-27T06:32:02.167Z,82.35
2023-01-27T06:34:51.452Z,82.35
2023-01-27T06:37:40.669Z,82.63
2023-01-27T06:40:31.913Z,82.28
2023-01-27T06:43:22.568Z,81.98
2023-01-27T06:46:12.373Z,82.22
2023-01-27T06:49:01.609Z,82.49
2023-01-27T06:51:50.793Z,82.11
2023-01-27T06:54:40.180Z,82.31
2023-01-27T06:57:29.563Z,82.28
2023-01-27T07:00:21.515Z,81.88
2023-01-27T07:06:02.483Z,81.83
2023-01-27T07:08:54.166Z,82.16
2023-01-27T07:11:44.663Z,82.03
2023-01-27T07:14:33.794Z,81.96
2023-01-27T07:17:24.648Z,81.90
2023-01-27T07:20:15.793Z,81.64
2023-01-27T07:23:07.038Z,82.17
2023-01-27T07:25:56.250Z,82.16
2023-01-27T07:28:45.396Z,82.30
2023-01-27T07:31:35.904Z,81.64
2023-01-27T07:34:26.536Z,82.28
2023-01-27T07:37:15.955Z,81.68
2023-01-27T07:40:05.830Z,81.58
2023-01-27T07:42:55.009Z,82.10
2023-01-27T07:45:45.279Z,81.85
2023-01-27T07:48:34.605Z,81.40
2023-01-27T07:51:25.223Z,81.59
2023-01-27T07:54:14.670Z,82.05
2023-01-27T07:57:03.887Z,81.98
2023-01-27T07:59:55.793Z,81.41
2023-01-27T08:02:45.026Z,81.67
2023-01-27T08:05:35.802Z,81.73
2023-01-27T08:08:26.492Z,81.90
2023-01-27T08:11:17.578Z,81.58
2023-01-27T08:14:07.036Z,81.72
2023-01-27T08:16:56.385Z,82.18
2023-01-27T08:19:45.532Z,81.85
2023-01-27T08:22:35.147Z,81.30
2023-01-27T08:25:26.169Z,81.84
2023-01-27T08:28:15.406Z,81.60
2023-01-27T08:31:10.936Z,81.75
2023-01-27T08:34:00.208Z,81.41
2023-01-27T08:36:49.535Z,81.56
2023-01-27T08:39:38.803Z,81.90
2023-01-27T08:42:29.787Z,81.64
2023-01-27T08:45:19.164Z,81.74
2023-01-27T08:48:08.700Z,81.37
2023-01-27T08:51:00.003Z,81.62
2023-01-27T08:53:49.322Z,81.07
2023-01-27T08:56:39.083Z,81.96
2023-01-27T08:59:29.697Z,81.78
2023-01-27T09:02:20.510Z,81.67
2023-01-27T09:05:10.022Z,81.35
2023-01-27T09:07:59.266Z,81.41
2023-01-27T09:10:48.526Z,81.58
2023-01-27T09:13:37.709Z,81.75
2023-01-27T09:16:29.172Z,81.32
2023-01-27T09:19:18.479Z,81.69
2023-01-27T09:22:07.856Z,81.42
2023-01-27T09:24:57.126Z,81.41
2023-01-27T09:27:46.432Z,81.30
2023-01-27T09:30:35.694Z,81.42
2023-01-27T09:33:27.049Z,80.91
2023-01-27T09:36:21.511Z,81.25
2023-01-27T09:39:11.573Z,80.94
2023-01-27T09:42:50.921Z,80.12
2023-01-27T09:46:19.477Z,80.62
2023-01-27T09:49:33.807Z,80.42
2023-01-27T09:52:47.843Z,79.13
2023-01-27T09:55:44.955Z,79.15
2023-01-27T09:58:53.015Z,79.50
2023-01-27T10:01:55.912Z,79.44
2023-01-27T10:05:03.293Z,78.87
2023-01-27T10:08:28.351Z,78.52
2023-01-27T10:11:29.579Z,78.39
2023-01-27T10:14:31.281Z,77.21
2023-01-27T10:17:38.597Z,78.15
2023-01-27T10:20:40.011Z,74.57
2023-01-27T10:23:43.055Z,76.62
2023-01-27T10:26:37.775Z,75.43
2023-01-27T10:29:33.801Z,74.77
2023-01-27T10:32:29.163Z,75.30
2023-01-27T10:35:21.383Z,74.23
2023-01-27T10:38:24.845Z,75.14
2023-01-27T10:41:22.979Z,72.66
2023-01-27T10:44:37.032Z,72.10
2023-01-27T10:47:41.664Z,73.11
2023-01-27T10:50:35.703Z,74.50
2023-01-27T10:53:35.473Z,71.01
2023-01-27T10:56:34.957Z,70.76
2023-01-27T10:59:31.607Z,71.46
2023-01-27T11:02:31.384Z,71.12
2023-01-27T11:05:29.466Z,71.56
2023-01-27T11:08:23.802Z,72.58
2023-01-27T11:11:35.321Z,71.81
2023-01-27T11:14:30.100Z,71.54
2023-01-27T11:17:29.836Z,70.64
2023-01-27T11:20:30.931Z,71.93
2023-01-27T11:23:23.697Z,72.51
2023-01-27T11:26:27.575Z,70.83
2023-01-27T11:29:29.289Z,70.29
2023-01-27T11:32:32.471Z,70.88
2023-01-27T11:35:22.833Z,70.33
2023-01-27T11:38:16.675Z,71.82
2023-01-27T11:41:06.476Z,72.19
2023-01-27T11:43:57.391Z,72.51
2023-01-27T11:46:48.539Z,72.26
2023-01-27T11:49:43.994Z,71.50
2023-01-27T11:52:34.083Z,71.65
2023-01-27T11:55:28.044Z,70.56
2023-01-27T11:58:25.980Z,70.58
2023-01-27T12:01:22.449Z,70.52
2023-01-27T12:04:20.414Z,71.51
2023-01-27T12:07:20.390Z,71.34
2023-01-27T12:10:29.291Z,71.32
2023-01-27T12:13:21.496Z,68.85
2023-01-27T12:16:10.855Z,68.72
2023-01-27T12:19:06.621Z,68.40
2023-01-27T12:21:59.745Z,69.31
2023-01-27T12:24:51.839Z,69.70
2023-01-27T12:27:49.018Z,69.04
2023-01-27T12:30:41.206Z,68.96
2023-01-27T12:33:34.108Z,69.67
2023-01-27T12:36:27.131Z,67.67
2023-01-27T12:39:46.593Z,68.39
2023-01-27T12:42:40.011Z,68.13
2023-01-27T12:45:31.492Z,65.10
2023-01-27T12:48:23.138Z,66.95
2023-01-27T12:51:20.186Z,66.23
2023-01-27T12:54:25.389Z,65.20
2023-01-27T12:57:18.224Z,61.83
2023-01-27T13:00:15.809Z,61.44
2023-01-27T13:03:12.843Z,62.58
2023-01-27T13:06:02.218Z,60.89
2023-01-27T13:08:54.092Z,61.12
2023-01-27T13:11:46.822Z,61.43
2023-01-27T13:14:43.288Z,60.55
2023-01-27T13:17:42.777Z,60.08
2023-01-27T13:20:40.974Z,61.03
2023-01-27T13:23:35.929Z,59.81
2023-01-27T13:26:31.928Z,62.03
2023-01-27T13:29:28.318Z,61.74
2023-01-27T13:32:25.126Z,59.94
2023-01-27T13:35:23.951Z,61.21
2023-01-27T13:38:24.180Z,62.12
2023-01-27T13:41:22.965Z,62.28
2023-01-27T13:44:25.536Z,62.33
2023-01-27T13:47:20.398Z,62.48
2023-01-27T13:50:21.861Z,62.94
2023-01-27T13:53:14.840Z,62.92
2023-01-27T13:56:21.247Z,63.27
2023-01-27T13:59:34.699Z,62.06
2023-01-27T14:03:06.134Z,60.94
2023-01-27T14:06:23.389Z,61.88
2023-01-27T14:09:31.949Z,62.34
2023-01-27T14:12:40.337Z,61.82
2023-01-27T14:15:37.761Z,62.05
2023-01-27T14:18:32.636Z,60.56
2023-01-27T14:21:40.892Z,59.05
2023-01-27T14:24:46.556Z,55.27
2023-01-27T14:27:41.331Z,56.79
2023-01-27T14:30:36.356Z,53.44
2023-01-27T14:33:58.887Z,53.43
2023-01-27T14:36:54.308Z,53.55
2023-01-27T14:39:55.185Z,53.95
2023-01-27T14:42:59.322Z,55.69
2023-01-27T14:45:55.674Z,55.77
2023-01-27T14:49:05.870Z,53.98
2023-01-27T14:52:04.098Z,55.72
2023-01-27T14:55:09.527Z,53.72
2023-01-27T14:58:19.553Z,54.82
2023-01-27T15:01:26.247Z,54.25
2023-01-27T15:04:42.184Z,54.80
2023-01-27T15:07:42.559Z,55.61
2023-01-27T15:10:33.532Z,55.76
2023-01-27T15:13:47.093Z,56.12
2023-01-27T15:16:49.224Z,56.44
2023-01-27T15:20:02.558Z,56.70
2023-01-27T15:23:09.256Z,56.95
2023-01-27T15:26:02.088Z,57.33
2023-01-27T15:28:52.308Z,57.32
2023-01-27T15:31:43.248Z,57.09
2023-01-27T15:34:32.643Z,56.69
2023-01-27T15:37:25.692Z,56.70
2023-01-27T15:40:17.888Z,56.57
2023-01-27T15:43:07.459Z,56.71
2023-01-27T15:45:58.383Z,57.24
2023-01-27T15:48:49.190Z,57.44
2023-01-27T15:51:39.076Z,57.46
2023-01-27T15:54:34.893Z,57.31
2023-01-27T15:57:30.925Z,58.05
2023-01-27T16:00:31.013Z,58.17
2023-01-27T16:03:28.255Z,58.72
2023-01-27T16:06:23.263Z,57.75
2023-01-27T16:09:29.965Z,57.92
2023-01-27T16:12:39.305Z,58.14
2023-01-27T16:15:37.338Z,58.75
2023-01-27T16:18:42.370Z,58.90
2023-01-27T16:21:44.601Z,59.31
2023-01-27T16:24:43.244Z,59.28
2023-01-27T16:27:46.243Z,60.05
2023-01-27T16:30:42.488Z,60.34
2023-01-27T16:33:38.232Z,59.49
2023-01-27T16:36:30.976Z,59.45
2023-01-27T16:39:33.457Z,59.38
2023-01-27T16:42:30.880Z,59.38
2023-01-27T16:45:25.251Z,59.42
2023-01-27T16:48:31.714Z,58.99
2023-01-27T16:51:25.363Z,59.32
2023-01-27T16:54:24.287Z,59.03
2023-01-27T16:57:30.814Z,58.63
2023-01-27T17:00:26.383Z,58.87
2023-01-27T17:03:20.290Z,58.56
2023-01-27T17:06:16.238Z,58.35
2023-01-27T17:09:21.172Z,58.92
2023-01-27T17:12:29.427Z,59.14
2023-01-27T17:15:26.801Z,59.04
2023-01-27T17:18:17.078Z,59.31
2023-01-27T17:21:06.835Z,59.45
2023-01-27T17:24:03.827Z,59.55
2023-01-27T17:27:02.376Z,59.47
2023-01-27T17:30:00.765Z,59.28
2023-01-27T17:32:54.688Z,59.87
2023-01-27T17:35:44.599Z,59.86
2023-01-27T17:38:48.445Z,59.67
2023-01-27T17:41:39.791Z,60.13
2023-01-27T17:44:29.745Z,60.11
2023-01-27T17:47:21.299Z,60.66
2023-01-27T17:50:19.045Z,60.55
2023-01-27T17:53:13.853Z,60.19
2023-01-27T17:56:15.414Z,60.72
2023-01-27T17:59:12.396Z,60.82
2023-01-27T18:02:14.567Z,60.93
2023-01-27T18:05:11.731Z,61.07
2023-01-27T18:08:05.111Z,60.88
2023-01-27T18:10:55.371Z,60.94
2023-01-27T18:13:44.984Z,60.95
2023-01-27T18:16:34.460Z,61.14
2023-01-27T18:19:25.700Z,61.14
2023-01-27T18:22:17.763Z,61.30
2023-01-27T18:25:20.157Z,61.62
2023-01-27T18:28:10.295Z,61.74
2023-01-27T18:30:59.661Z,61.79
2023-01-27T18:33:59.345Z,61.54
2023-01-27T18:36:54.713Z,61.93
2023-01-27T18:39:43.923Z,61.58
2023-01-27T18:42:34.566Z,61.86
2023-01-27T18:45:24.156Z,61.47
2023-01-27T18:48:17.537Z,61.58
2023-01-27T18:51:13.401Z,61.71
2023-01-27T18:54:02.579Z,62.15
2023-01-27T18:56:51.826Z,61.98
2023-01-27T18:59:42.374Z,62.42
2023-01-27T19:02:31.655Z,62.84
2023-01-27T19:05:23.747Z,62.54
2023-01-27T19:08:16.720Z,62.65
2023-01-27T19:11:06.731Z,63.19
2023-01-27T19:13:55.914Z,63.39
2023-01-27T19:16:46.977Z,63.86
2023-01-27T19:19:36.253Z,63.61
2023-01-27T19:22:25.536Z,63.99
2023-01-27T19:25:15.466Z,63.86
2023-01-27T19:28:08.523Z,63.64
2023-01-27T19:30:58.055Z,64.31
2023-01-27T19:33:48.659Z,64.49
2023-01-27T19:36:44.093Z,64.39
2023-01-27T19:39:33.336Z,63.91
2023-01-27T19:42:22.524Z,64.59
2023-01-27T19:45:14.345Z,64.19
2023-01-27T19:48:03.878Z,64.85
2023-01-27T19:50:54.516Z,64.80
2023-01-27T19:53:43.719Z,64.84
2023-01-27T19:56:33.520Z,64.93
2023-01-27T19:59:22.714Z,65.21
2023-01-27T20:02:14.316Z,65.17
2023-01-27T20:05:03.576Z,65.27
2023-01-27T20:07:56.907Z,65.91
2023-01-27T20:10:46.720Z,66.00
2023-01-27T20:13:35.921Z,66.52
2023-01-27T20:16:26.221Z,66.62
2023-01-27T20:19:17.055Z,66.45
2023-01-27T20:22:06.340Z,66.57
2023-01-27T20:24:57.018Z,66.42
2023-01-27T20:27:49.406Z,66.67
2023-01-27T20:30:39.866Z,66.34
2023-01-27T20:33:29.317Z,66.80
2023-01-27T20:36:21.747Z,67.30
2023-01-27T20:39:11.967Z,66.67
2023-01-27T20:42:02.678Z,66.97
2023-01-27T20:44:51.924Z,66.87
2023-01-27T20:47:41.415Z,67.56
2023-01-27T20:50:30.811Z,67.49
2023-01-27T20:53:20.088Z,67.48
2023-01-27T20:56:10.396Z,67.25
2023-01-27T20:59:01.785Z,68.02
2023-01-27T21:01:51.068Z,68.33
2023-01-27T21:04:40.701Z,67.70
2023-01-27T21:07:30.236Z,68.48
2023-01-27T21:10:20.927Z,68.48
2023-01-27T21:13:10.199Z,68.03
2023-01-27T21:16:02.036Z,67.92
2023-01-27T21:18:51.628Z,68.45
2023-01-27T21:21:41.080Z,68.37
2023-01-27T21:24:31.203Z,68.60
2023-01-27T21:27:20.553Z,68.73
2023-01-27T21:30:13.312Z,68.48
2023-01-27T21:33:03.992Z,68.66
2023-01-27T21:35:56.377Z,68.80
2023-01-27T21:38:45.755Z,68.24
2023-01-27T21:41:52.770Z,68.53
2023-01-27T21:44:59.699Z,68.47
2023-01-27T21:47:48.905Z,68.80
2023-01-27T21:50:39.657Z,68.89
2023-01-27T21:53:29.175Z,68.72
2023-01-27T21:56:18.541Z,69.04
2023-01-27T21:59:08.207Z,68.50
2023-01-27T22:01:57.350Z,68.40
2023-01-27T22:04:47.515Z,68.27
2023-01-27T22:07:39.323Z,68.45
2023-01-27T22:10:30.960Z,68.39
2023-01-27T22:13:20.156Z,68.33
2023-01-27T22:16:13.604Z,68.53
2023-01-27T22:19:03.032Z,68.51
2023-01-27T22:21:52.366Z,68.94
2023-01-27T22:24:43.581Z,68.97
2023-01-27T22:27:32.799Z,68.52
2023-01-27T22:30:22.148Z,69.28
2023-01-27T22:33:11.362Z,68.99
2023-01-27T22:36:01.747Z,69.86
2023-01-27T22:38:51.057Z,70.26
2023-01-27T22:41:41.699Z,70.23
2023-01-27T22:44:31.150Z,70.36
2023-01-27T22:47:20.762Z,70.67
2023-01-27T22:50:12.232Z,70.00
2023-01-27T22:53:01.745Z,70.92
2023-01-27T22:55:59.097Z,70.58
2023-01-27T22:58:49.772Z,70.06
2023-01-27T23:01:39.208Z,70.37
2023-01-27T23:04:28.513Z,70.08
2023-01-27T23:07:17.820Z,70.49
2023-01-27T23:10:08.566Z,70.09
2023-01-27T23:12:57.723Z,70.60
2023-01-27T23:15:48.318Z,70.52
2023-01-27T23:18:37.904Z,70.17
2023-01-27T23:21:27.217Z,70.71
2023-01-27T23:24:16.824Z,70.64
2023-01-27T23:27:06.117Z,70.52
2023-01-27T23:29:55.632Z,70.69
2023-01-27T23:32:46.804Z,70.47
2023-01-27T23:35:35.953Z,70.53
2023-01-27T23:38:32.612Z,70.65
2023-01-27T23:41:23.177Z,70.69
2023-01-27T23:44:13.839Z,70.98
2023-01-27T23:47:03.071Z,71.12
2023-01-27T23:49:53.719Z,70.73
2023-01-27T23:52:42.939Z,70.64
2023-01-27T23:55:32.087Z,70.56
2023-01-27T23:58:21.895Z,70.34
